Terminal Aerodrome Forecast
Issued by NWS Newport/Morehead City, NC

Home | Current Version | Previous Version | Text Only | Print | Product List | Glossary On
Versions: 1 2 3 4 5 6 7 8 9 10 11 12 13 14 15 16
000
FTUS42 KMHX 280859 AAA
TAFEWN
TAF AMD
KEWN 280859Z 2809/2906 17005KT P6SM SCT030
      TEMPO 2809/2811 BKN025
     FM281700 17010G15KT P6SM BKN040
     FM282300 16005KT P6SM SCT050=

USA.gov is the U.S. government's official web portal to all federal, state and local government web resources and services.